createdAt,value
2023-02-08T00:00:45.621Z,35.33
2023-02-08T00:05:46.289Z,34.38
2023-02-08T00:10:48.321Z,33.17
2023-02-08T00:15:49.096Z,32.22
2023-02-08T00:20:50.308Z,31.83
2023-02-08T00:25:52.327Z,33.22
2023-02-08T00:30:53.462Z,30.38
2023-02-08T00:35:59.576Z,32.22
2023-02-08T00:41:01.642Z,28.65
2023-02-08T00:46:02.352Z,30.33
2023-02-08T00:51:05.329Z,29.83
2023-02-08T00:56:08.434Z,31.73
2023-02-08T01:01:09.300Z,29.42
2023-02-08T01:06:12.194Z,29.42
2023-02-08T01:11:16.311Z,29.65
2023-02-08T01:16:20.981Z,29.10
2023-02-08T01:21:24.444Z,30.58
2023-02-08T01:26:27.204Z,30.15
2023-02-08T01:31:30.804Z,30.08
2023-02-08T01:36:35.007Z,29.85
2023-02-08T01:41:39.994Z,27.98
2023-02-08T01:46:43.033Z,29.10
2023-02-08T01:51:49.136Z,30.17
2023-02-08T01:56:51.953Z,29.27
2023-02-08T02:01:55.618Z,27.23
2023-02-08T02:07:00.497Z,28.10
2023-02-08T02:12:03.195Z,27.60
2023-02-08T02:17:04.140Z,27.35
2023-02-08T02:22:17.129Z,28.15
2023-02-08T02:27:35.832Z,28.60
2023-02-08T02:32:55.242Z,27.65
2023-02-08T02:38:05.151Z,26.63
2023-02-08T02:43:32.440Z,27.75
2023-02-08T02:48:42.532Z,27.05
2023-02-08T02:53:50.433Z,26.55
2023-02-08T02:58:53.402Z,28.15
2023-02-08T03:03:55.864Z,26.38
2023-02-08T03:09:07.648Z,27.52
2023-02-08T03:14:25.222Z,24.85
2023-02-08T03:19:36.269Z,25.73
2023-02-08T03:24:47.044Z,24.48
2023-02-08T03:29:55.600Z,26.83
2023-02-08T03:35:02.672Z,24.88
2023-02-08T03:40:08.506Z,26.02
2023-02-08T03:45:16.065Z,27.70
2023-02-08T03:50:21.015Z,26.80
2023-02-08T03:55:26.405Z,26.95
2023-02-08T04:00:27.867Z,28.48
2023-02-08T04:05:30.448Z,29.73
2023-02-08T04:10:31.164Z,29.13
2023-02-08T04:15:32.272Z,25.92
2023-02-08T04:20:34.310Z,28.20
2023-02-08T04:25:34.951Z,25.25
2023-02-08T04:30:35.701Z,25.73
2023-02-08T04:35:37.758Z,27.75
2023-02-08T04:40:38.616Z,27.67
2023-02-08T04:45:39.407Z,26.70
2023-02-08T04:50:41.794Z,25.92
2023-02-08T04:55:42.928Z,25.35
2023-02-08T05:00:43.769Z,26.40
2023-02-08T05:05:45.772Z,25.00
2023-02-08T05:10:46.846Z,24.40
2023-02-08T05:15:48.242Z,23.85
2023-02-08T05:20:56.883Z,23.77
2023-02-08T05:25:57.556Z,23.88
2023-02-08T05:30:58.302Z,26.20
2023-02-08T05:36:00.313Z,24.52
2023-02-08T05:41:01.215Z,22.75
2023-02-08T05:46:02.028Z,23.92
2023-02-08T05:51:04.205Z,24.80
2023-02-08T05:56:05.182Z,24.27
2023-02-08T06:01:09.457Z,25.67
2023-02-08T06:06:11.906Z,25.70
2023-02-08T06:11:12.630Z,25.98
2023-02-08T06:16:13.519Z,26.15
2023-02-08T06:21:15.533Z,26.70
2023-02-08T06:26:16.350Z,27.88
2023-02-08T06:31:17.111Z,29.58
2023-02-08T06:36:19.182Z,29.55
2023-02-08T06:41:20.096Z,29.80
2023-02-08T06:46:20.778Z,30.20
2023-02-08T06:51:22.749Z,29.13
2023-02-08T06:56:23.411Z,30.83
2023-02-08T07:01:24.246Z,29.88
2023-02-08T07:06:26.337Z,37.10
2023-02-08T07:11:27.076Z,31.10
2023-02-08T07:16:27.832Z,28.52
2023-02-08T07:21:29.896Z,27.70
2023-02-08T07:26:30.812Z,28.38
2023-02-08T07:31:31.626Z,30.70
2023-02-08T07:36:35.734Z,29.45
2023-02-08T07:41:36.400Z,28.35
2023-02-08T07:46:37.069Z,26.55
2023-02-08T07:51:39.270Z,29.10
2023-02-08T07:56:39.992Z,30.23
2023-02-08T08:01:40.733Z,30.48
2023-02-08T08:06:42.751Z,30.48
2023-02-08T08:11:43.412Z,30.80
2023-02-08T08:16:44.070Z,26.90
2023-02-08T08:21:46.038Z,31.25
2023-02-08T08:26:46.741Z,30.65
2023-02-08T08:31:47.455Z,28.58
2023-02-08T08:36:49.450Z,29.15
2023-02-08T08:41:50.154Z,26.50
2023-02-08T08:46:50.869Z,27.80
2023-02-08T08:51:53.006Z,27.30
2023-02-08T08:56:53.808Z,25.83
2023-02-08T09:01:54.819Z,24.67
2023-02-08T09:06:56.904Z,24.88
2023-02-08T09:11:57.580Z,25.85
2023-02-08T09:16:58.222Z,24.30
2023-02-08T09:22:00.689Z,23.65
2023-02-08T09:27:01.468Z,23.50
2023-02-08T09:32:02.263Z,22.55
2023-02-08T09:37:04.395Z,21.42
2023-02-08T09:42:17.269Z,21.77
2023-02-08T09:47:21.227Z,20.95
2023-02-08T09:52:28.641Z,21.45
2023-02-08T09:57:33.870Z,21.17
2023-02-08T10:02:35.690Z,21.13
2023-02-08T10:07:38.121Z,22.05
2023-02-08T10:12:47.588Z,20.27
2023-02-08T10:18:12.105Z,20.95
2023-02-08T10:23:25.025Z,21.48
2023-02-08T10:28:37.627Z,21.48
2023-02-08T10:33:43.758Z,19.95
2023-02-08T10:38:50.378Z,20.85
2023-02-08T10:43:55.615Z,20.63
2023-02-08T10:49:08.212Z,19.05
2023-02-08T10:54:13.564Z,19.85
2023-02-08T10:59:22.957Z,20.17
2023-02-08T11:04:23.678Z,18.52
2023-02-08T11:09:29.065Z,18.25
2023-02-08T11:14:46.329Z,19.80
2023-02-08T11:19:47.984Z,19.38
2023-02-08T11:24:57.648Z,17.65
2023-02-08T11:30:20.139Z,18.63
2023-02-08T11:35:23.458Z,18.25
2023-02-08T11:40:30.392Z,18.77
2023-02-08T11:45:33.226Z,18.42
2023-02-08T11:50:35.891Z,18.38
2023-02-08T11:55:37.983Z,17.33
2023-02-08T12:00:40.608Z,16.83
2023-02-08T12:05:53.787Z,17.05
2023-02-08T12:11:16.591Z,16.55
2023-02-08T12:16:36.738Z,16.40
2023-02-08T12:21:42.545Z,16.65
2023-02-08T12:27:01.507Z,15.20
2023-02-08T12:32:16.883Z,15.55
2023-02-08T12:37:53.473Z,16.20
2023-02-08T12:43:07.174Z,16.80
2023-02-08T12:48:22.609Z,15.18
2023-02-08T12:53:32.175Z,15.02
2023-02-08T12:58:40.518Z,14.10
2023-02-08T13:03:48.575Z,13.82
2023-02-08T13:08:55.091Z,13.95
2023-02-08T13:14:04.683Z,12.90
2023-02-08T13:19:27.465Z,12.93
2023-02-08T13:24:34.327Z,13.05
2023-02-08T13:29:37.561Z,13.98
2023-02-08T13:34:42.080Z,13.73
2023-02-08T13:39:46.289Z,13.75
2023-02-08T13:44:53.264Z,12.85
2023-02-08T13:49:59.999Z,14.73
2023-02-08T13:55:35.961Z,13.90
2023-02-08T14:01:01.049Z,14.48
2023-02-08T14:06:06.263Z,13.75
2023-02-08T14:11:15.311Z,14.05
2023-02-08T14:16:31.832Z,15.15
2023-02-08T14:21:39.500Z,13.65
2023-02-08T14:26:40.317Z,13.32
2023-02-08T14:31:44.265Z,13.65
2023-02-08T14:36:46.399Z,12.68
2023-02-08T14:41:54.454Z,12.57
2023-02-08T14:46:55.134Z,12.77
2023-02-08T14:52:00.579Z,13.50
2023-02-08T14:57:04.866Z,13.02
2023-02-08T15:02:15.300Z,12.65
2023-02-08T15:07:33.045Z,12.65
2023-02-08T15:12:36.748Z,13.10
2023-02-08T15:17:42.215Z,13.05
2023-02-08T15:22:44.335Z,14.13
2023-02-08T15:27:48.303Z,14.40
2023-02-08T15:32:49.049Z,12.95
2023-02-08T15:37:51.782Z,14.02
2023-02-08T15:42:52.542Z,14.35
2023-02-08T15:47:54.583Z,13.13
2023-02-08T15:53:01.444Z,13.15
2023-02-08T15:58:07.174Z,14.07
2023-02-08T16:03:17.226Z,13.32
2023-02-08T16:08:23.922Z,13.80
2023-02-08T16:13:28.022Z,14.40
2023-02-08T16:18:39.493Z,12.73
2023-02-08T16:23:49.224Z,14.20
2023-02-08T16:28:56.752Z,13.50
2023-02-08T16:33:59.527Z,13.10
2023-02-08T16:39:24.117Z,12.27
2023-02-08T16:44:27.171Z,13.82
2023-02-08T16:49:28.373Z,14.02
2023-02-08T16:54:30.425Z,12.48
2023-02-08T17:04:32.101Z,14.48
2023-02-08T17:09:34.495Z,13.15
2023-02-08T17:14:35.176Z,15.00
2023-02-08T17:19:35.921Z,14.63
2023-02-08T17:24:39.280Z,14.98
2023-02-08T17:29:40.253Z,14.90
2023-02-08T17:34:40.994Z,15.65
2023-02-08T17:39:42.994Z,17.73
2023-02-08T17:44:43.667Z,16.10
2023-02-08T17:49:44.398Z,14.75
2023-02-08T17:54:46.441Z,14.68
2023-02-08T17:59:47.196Z,15.57
2023-02-08T18:04:47.907Z,16.77
2023-02-08T18:09:49.926Z,15.95
2023-02-08T18:14:50.641Z,16.88
2023-02-08T18:19:52.391Z,17.50
2023-02-08T18:24:55.284Z,17.08
2023-02-08T18:29:56.045Z,15.68
2023-02-08T18:34:58.465Z,16.25
2023-02-08T18:40:00.849Z,14.63
2023-02-08T18:45:01.538Z,16.33
2023-02-08T18:50:02.264Z,16.20
2023-02-08T18:55:05.295Z,16.05
2023-02-08T19:00:07.284Z,15.73
2023-02-08T19:05:08.366Z,17.00
2023-02-08T19:10:10.757Z,15.93
2023-02-08T19:15:11.524Z,15.90
2023-02-08T19:20:12.789Z,15.30
2023-02-08T19:25:14.926Z,15.60
2023-02-08T19:30:17.128Z,16.60
2023-02-08T19:35:18.454Z,17.45
2023-02-08T19:40:21.602Z,16.95
2023-02-08T19:45:22.541Z,18.48
2023-02-08T19:50:23.388Z,16.05
2023-02-08T19:55:25.426Z,15.80
2023-02-08T20:00:26.416Z,16.52
2023-02-08T20:05:27.133Z,16.45
2023-02-08T20:10:29.165Z,14.77
2023-02-08T20:15:29.865Z,15.38
2023-02-08T20:20:30.611Z,15.98
2023-02-08T20:25:33.011Z,16.13
2023-02-08T20:30:33.902Z,14.30
2023-02-08T20:35:37.263Z,14.70
2023-02-08T20:40:39.309Z,13.48
2023-02-08T20:45:41.825Z,12.88
2023-02-08T20:50:42.854Z,13.38
2023-02-08T20:55:45.407Z,13.27
2023-02-08T21:00:46.539Z,12.75
2023-02-08T21:05:47.258Z,13.80
2023-02-08T21:10:49.272Z,11.93
2023-02-08T21:15:49.966Z,11.88
2023-02-08T21:20:51.318Z,10.95
2023-02-08T21:25:53.542Z,10.55
2023-02-08T21:30:58.027Z,9.68
2023-02-08T21:36:02.921Z,9.35
2023-02-08T21:41:08.944Z,9.63
2023-02-08T21:46:10.441Z,8.70
2023-02-08T21:51:29.029Z,8.85
2023-02-08T21:56:31.075Z,8.10
2023-02-08T22:01:31.827Z,7.95
2023-02-08T22:06:32.589Z,9.00
2023-02-08T22:11:35.742Z,9.25
2023-02-08T22:16:36.705Z,8.63
2023-02-08T22:21:37.438Z,8.73
2023-02-08T22:26:39.569Z,8.82
2023-02-08T22:31:40.421Z,8.52
2023-02-08T22:36:41.168Z,8.90
2023-02-08T22:41:43.291Z,8.73
2023-02-08T22:46:44.024Z,8.90
2023-02-08T22:51:44.742Z,8.40
2023-02-08T22:56:46.734Z,9.65
2023-02-08T23:01:47.668Z,7.93
2023-02-08T23:06:48.690Z,8.15
2023-02-08T23:11:50.834Z,8.07
2023-02-08T23:16:52.031Z,9.13
2023-02-08T23:21:52.743Z,8.35
2023-02-08T23:26:54.952Z,8.65
2023-02-08T23:31:55.687Z,9.02
2023-02-08T23:36:56.424Z,8.55
2023-02-08T23:41:58.512Z,8.10
2023-02-08T23:46:59.225Z,8.98
2023-02-08T23:51:59.913Z,9.15
2023-02-08T23:57:01.915Z,8.27
